createdAt,value
2018-10-05T05:43:59.318Z,99.90
2018-10-05T05:46:30.077Z,99.90
2018-10-05T05:49:00.817Z,99.90
2018-10-05T05:51:30.956Z,99.90
2018-10-05T05:54:02.263Z,99.90
2018-10-05T05:56:33.485Z,99.90
2018-10-05T05:59:05.004Z,99.90
2018-10-05T06:01:35.312Z,99.90
2018-10-05T06:04:06.048Z,99.90
2018-10-05T06:06:36.272Z,99.90
2018-10-05T06:09:08.949Z,99.90
2018-10-05T06:11:39.980Z,99.90
2018-10-05T06:14:09.939Z,99.90
2018-10-05T06:16:40.830Z,99.90
2018-10-05T06:19:12.065Z,99.90
2018-10-05T06:21:42.710Z,99.90
2018-10-05T06:24:13.233Z,99.90
2018-10-05T06:26:44.272Z,99.90
2018-10-05T06:29:15.240Z,99.90
2018-10-05T06:31:46.060Z,99.90
2018-10-05T06:34:17.048Z,99.90
2018-10-05T06:36:48.444Z,99.90
2018-10-05T06:39:18.775Z,99.90
2018-10-05T06:41:49.459Z,99.90
2018-10-05T06:44:20.843Z,99.90
2018-10-05T06:46:51.248Z,99.90
2018-10-05T06:49:22.297Z,99.90
2018-10-05T06:51:53.010Z,99.90
2018-10-05T06:54:24.152Z,99.90
2018-10-05T06:56:54.857Z,99.90
2018-10-05T06:59:25.725Z,84.40
2018-10-05T07:01:55.816Z,74.50
2018-10-05T07:04:26.372Z,56.70
2018-10-05T07:06:56.568Z,58.00
2018-10-05T07:09:27.399Z,52.80
2018-10-05T07:11:58.307Z,50.20
2018-10-05T07:14:29.506Z,48.50
2018-10-05T07:16:59.052Z,48.90
2018-10-05T07:19:30.948Z,49.20
2018-10-05T07:22:02.409Z,45.80
2018-10-05T07:24:32.688Z,47.40
2018-10-05T07:27:03.620Z,45.00
2018-10-05T07:29:34.450Z,44.50
2018-10-05T07:32:05.409Z,44.70
2018-10-05T07:34:35.260Z,44.10
2018-10-05T07:37:05.963Z,44.70
2018-10-05T07:39:37.004Z,45.60
2018-10-05T07:42:06.876Z,43.60
2018-10-05T07:44:37.764Z,41.90
2018-10-05T07:47:08.526Z,41.50
2018-10-05T07:49:38.520Z,41.60
2018-10-05T07:52:11.441Z,40.50
2018-10-05T08:38:12.506Z,37.00
2018-10-05T13:22:05.379Z,33.80
2018-10-05T13:39:26.912Z,36.30
